Sacramento, California
Current Conditions -  °F | °C
As of 11:53 PM on Thursday 23 Oct 2014 (Local Time) from KSAC Reporting Station
Clear Clear  
Wind Chill: 15°   Ceiling: Unl
Heat Index: 15°   Visibility: 10mi
Dew Point: 12°   Wind: 7mph
Humidity: 83%   Direction: 340°NNW
Pressure: 30"   Gusts: NA
Location:  38.58°N, 121.49°W
Report Text: KSAC 240653Z AUTO 34006KT 10SM CLR 15/12 A3000 RMK AO2 SLP159 T01500122
Loading
Personal Weather Stations






























Interactive Weather Map New forecast layout! Learn more

10-Day Weather Forecast

Advertisements
Track Severe Weather on mobile